Time;durP1;ratioP1;P1;durP2;ratioP2;P2;SDS_P1;SDS_P2;PMS_P1;PMS_P2;Temp;Humidity;BMP_temperature;BMP_pressure;BME280_temperature;BME280_humidity;BME280_pressure;Samples;Min_cycle;Max_cycle;Signal;HPM_P1;HPM_P2
2021/03/31 00:01:46;;;;;;;4.50;2.10;;;22.00;63.50;;;;;;4106351;28;20543;-52
2021/03/31 00:03:48;;;;;;;6.60;2.30;;;22.10;63.60;;;;;;4106276;28;20042;-52
2021/03/31 00:05:50;;;;;;;5.35;2.00;;;22.10;63.60;;;;;;4111594;28;20030;-53
2021/03/31 00:07:53;;;;;;;5.00;2.42;;;22.10;63.70;;;;;;4109113;28;20069;-51
2021/03/31 00:09:55;;;;;;;8.13;1.80;;;22.10;63.80;;;;;;4109081;28;20488;-48
2021/03/31 00:11:57;;;;;;;4.40;2.03;;;22.20;63.80;;;;;;4104470;28;20117;-50
2021/03/31 00:13:59;;;;;;;7.13;2.08;;;22.20;63.90;;;;;;4110845;28;20042;-54
2021/03/31 00:16:02;;;;;;;3.85;1.98;;;22.20;63.10;;;;;;4104149;28;20488;-55
2021/03/31 00:18:10;;;;;;;6.15;2.38;;;22.20;63.30;;;;;;4114225;28;20296;-49
2021/03/31 00:20:16;;;;;;;6.72;1.90;;;22.30;63.20;;;;;;4104873;28;20138;-49
2021/03/31 00:22:18;;;;;;;7.57;2.40;;;22.30;62.70;;;;;;4094625;28;20573;-51
2021/03/31 00:24:20;;;;;;;4.45;2.17;;;22.20;62.40;;;;;;4094376;28;20069;-51
2021/03/31 00:26:22;;;;;;;4.90;2.40;;;22.30;62.40;;;;;;4094879;28;20038;-49
2021/03/31 00:28:25;;;;;;;5.60;1.90;;;22.30;62.10;;;;;;4092538;28;20102;-51
2021/03/31 00:30:28;;;;;;;5.82;2.03;;;22.30;62.60;;;;;;4102580;28;20076;-47
2021/03/31 00:32:33;;;;;;;4.20;1.75;;;22.30;62.70;;;;;;4114131;28;20428;-49
2021/03/31 00:34:35;;;;;;;5.15;2.05;;;22.30;62.70;;;;;;4105841;28;20209;-52
2021/03/31 00:36:37;;;;;;;4.45;2.08;;;22.30;62.80;;;;;;4110628;28;20046;-53
2021/03/31 00:38:39;;;;;;;4.60;1.92;;;22.30;62.70;;;;;;4107611;28;20046;-51
2021/03/31 00:40:54;;;;;;;6.53;2.05;;;22.40;62.80;;;;;;4115239;28;20461;-53
2021/03/31 00:42:56;;;;;;;4.70;2.47;;;22.40;62.60;;;;;;4105188;28;20066;-52
2021/03/31 00:44:58;;;;;;;5.07;2.03;;;22.40;62.40;;;;;;4106217;28;20142;-51
2021/03/31 00:47:00;;;;;;;6.15;2.20;;;22.40;62.40;;;;;;4106436;28;20054;-55
2021/03/31 00:49:02;;;;;;;4.40;1.98;;;22.50;62.50;;;;;;4103333;28;20546;-47
2021/03/31 00:51:04;;;;;;;3.85;2.00;;;22.50;62.30;;;;;;4107083;28;20063;-53
2021/03/31 00:53:07;;;;;;;4.35;1.85;;;22.50;62.10;;;;;;4104796;28;20033;-50
2021/03/31 00:55:11;;;;;;;6.72;2.25;;;22.50;62.00;;;;;;4108357;28;20543;-52
2021/03/31 00:57:13;;;;;;;4.95;2.33;;;22.60;62.00;;;;;;4101616;28;20050;-55
2021/03/31 00:59:15;;;;;;;5.60;1.75;;;22.50;62.00;;;;;;4114610;28;20036;-54
2021/03/31 01:01:17;;;;;;;4.15;2.00;;;22.60;61.90;;;;;;4107387;28;20483;-47
2021/03/31 01:03:19;;;;;;;4.75;2.33;;;22.60;61.90;;;;;;4105567;28;20133;-50
2021/03/31 01:05:23;;;;;;;4.47;1.70;;;22.70;62.30;;;;;;4110858;28;20322;-51
2021/03/31 01:07:25;;;;;;;3.17;1.90;;;22.70;61.70;;;;;;4101715;28;20365;-52
2021/03/31 01:09:28;;;;;;;3.90;1.70;;;22.70;61.60;;;;;;4108170;28;20223;-54
2021/03/31 01:11:40;;;;;;;5.57;2.10;;;22.70;61.60;;;;;;4106775;28;20350;-48
2021/03/31 01:13:59;;;;;;;4.15;2.17;;;22.70;61.50;;;;;;4092662;28;20115;-49
2021/03/31 01:16:15;;;;;;;7.22;1.98;;;22.80;61.50;;;;;;4101083;28;20036;-49
2021/03/31 01:18:31;;;;;;;5.97;2.17;;;22.80;61.50;;;;;;4096767;28;20066;-48
2021/03/31 01:21:15;;;;;;;5.03;2.20;;;22.80;61.50;;;;;;4098644;28;20323;-48
2021/03/31 01:23:31;;;;;;;4.85;2.40;;;22.80;61.40;;;;;;4049920;29;20048;-50
2021/03/31 01:25:56;;;;;;;7.85;2.72;;;22.80;60.70;;;;;;4052418;29;20193;-48
2021/03/31 01:28:08;;;;;;;8.07;2.80;;;22.80;59.70;;;;;;4055897;28;20043;-47
2021/03/31 01:30:28;;;;;;;8.05;3.10;;;22.80;59.30;;;;;;4098244;28;20043;-50
2021/03/31 01:33:02;;;;;;;7.05;2.90;;;22.70;59.20;;;;;;4098147;28;20062;-52
2021/03/31 01:35:13;;;;;;;7.75;2.92;;;22.70;59.00;;;;;;4099320;28;20055;-54
2021/03/31 01:37:34;;;;;;;8.10;3.30;;;22.70;59.00;;;;;;4089508;28;20051;-54
2021/03/31 01:39:40;;;;;;;6.97;3.50;;;22.70;59.10;;;;;;4105134;28;20904;-55
2021/03/31 01:41:44;;;;;;;7.22;3.22;;;22.60;59.00;;;;;;4113720;28;20492;-53
2021/03/31 01:43:51;;;;;;;6.18;3.10;;;22.60;58.80;;;;;;4109382;28;20397;-50
2021/03/31 01:45:56;;;;;;;5.72;2.85;;;22.60;58.90;;;;;;4111232;28;20046;-51
2021/03/31 01:48:06;;;;;;;6.22;2.88;;;22.60;59.20;;;;;;4109989;28;20503;-57
2021/03/31 01:50:09;;;;;;;7.70;2.85;;;22.70;59.40;;;;;;4108548;28;20033;-59
2021/03/31 01:52:12;;;;;;;11.35;2.80;;;22.70;59.70;;;;;;4111364;28;20054;-54
2021/03/31 01:54:17;;;;;;;4.55;2.60;;;22.70;59.80;;;;;;4108579;28;20053;-50
2021/03/31 01:56:19;;;;;;;3.80;2.20;;;22.80;59.90;;;;;;4118338;28;20030;-49
2021/03/31 01:58:23;;;;;;;5.20;2.23;;;22.80;60.10;;;;;;4114115;28;20034;-55
2021/03/31 02:00:25;;;;;;;4.68;2.40;;;22.80;60.70;;;;;;4113750;28;20042;-51
2021/03/31 02:02:28;;;;;;;4.00;1.77;;;22.90;60.20;;;;;;4112349;28;20843;-51
2021/03/31 02:04:33;;;;;;;6.05;2.38;;;22.90;60.20;;;;;;4116309;28;20377;-56
2021/03/31 02:06:36;;;;;;;3.17;1.80;;;23.00;60.20;;;;;;4107749;28;20477;-59
2021/03/31 02:08:40;;;;;;;2.38;1.50;;;23.00;60.30;;;;;;4108313;28;20041;-51
2021/03/31 02:10:44;;;;;;;4.78;2.08;;;23.00;60.30;;;;;;4115239;28;20116;-52
2021/03/31 02:12:46;;;;;;;4.03;1.92;;;23.10;60.40;;;;;;4109114;28;20482;-54
2021/03/31 02:14:51;;;;;;;4.18;1.95;;;23.10;60.40;;;;;;4107258;28;20089;-53
2021/03/31 02:16:54;;;;;;;4.70;1.77;;;23.10;60.40;;;;;;4110199;28;20031;-56
2021/03/31 02:18:57;;;;;;;5.35;2.28;;;23.20;60.50;;;;;;4113834;28;20031;-51
2021/03/31 02:21:00;;;;;;;4.78;1.85;;;23.20;60.50;;;;;;4105954;28;20049;-56
2021/03/31 02:23:04;;;;;;;4.03;1.90;;;23.20;60.40;;;;;;4112113;28;20050;-50
2021/03/31 02:25:07;;;;;;;4.82;1.90;;;23.30;60.30;;;;;;4109317;28;20482;-51
2021/03/31 02:27:10;;;;;;;4.60;1.85;;;23.30;60.30;;;;;;4109961;28;20046;-55
2021/03/31 02:29:12;;;;;;;3.60;2.00;;;23.30;60.40;;;;;;4114515;28;20121;-49
2021/03/31 02:31:16;;;;;;;2.33;1.35;;;23.40;60.50;;;;;;4108560;28;20049;-53
2021/03/31 02:33:20;;;;;;;3.47;1.75;;;23.40;60.50;;;;;;4110625;28;20429;-50
2021/03/31 02:35:23;;;;;;;5.32;1.77;;;23.40;60.40;;;;;;4106686;28;20031;-48
2021/03/31 02:37:26;;;;;;;3.15;1.63;;;23.40;60.40;;;;;;4112820;28;20209;-54
2021/03/31 02:39:29;;;;;;;4.63;1.75;;;23.40;60.40;;;;;;4104721;28;20045;-51
2021/03/31 02:41:35;;;;;;;4.18;1.73;;;23.40;60.30;;;;;;4108489;28;20583;-48
2021/03/31 02:43:47;;;;;;;4.53;1.63;;;23.50;60.50;;;;;;4107429;28;20042;-52
2021/03/31 02:45:54;;;;;;;3.63;1.83;;;23.50;60.50;;;;;;4097302;28;20038;-53
2021/03/31 02:47:59;;;;;;;4.50;1.95;;;23.50;60.50;;;;;;4090651;28;20847;-49
2021/03/31 02:50:04;;;;;;;5.18;2.25;;;23.50;60.60;;;;;;4094565;28;20030;-52
2021/03/31 02:52:07;;;;;;;3.85;1.75;;;23.50;60.50;;;;;;4108213;28;20528;-54
2021/03/31 02:54:09;;;;;;;;;;;23.50;60.50;;;;;;4107274;28;20143;-56
2021/03/31 02:56:13;;;;;;;5.20;1.83;;;23.60;60.70;;;;;;4115583;28;19952;-53
2021/03/31 02:58:15;;;;;;;4.35;1.83;;;23.60;60.70;;;;;;4103819;28;20438;-54
2021/03/31 03:00:18;;;;;;;5.63;2.10;;;23.60;60.70;;;;;;4102278;28;20118;-46
2021/03/31 03:02:21;;;;;;;4.82;2.30;;;23.60;60.50;;;;;;4094541;28;20055;-52
2021/03/31 03:04:23;;;;;;;4.15;1.90;;;23.60;60.50;;;;;;4110535;28;20133;-56
2021/03/31 03:06:31;;;;;;;3.40;1.73;;;23.60;60.50;;;;;;4110178;28;20039;-56
2021/03/31 03:08:34;;;;;;;3.97;1.90;;;23.70;60.60;;;;;;4109910;28;20264;-50
2021/03/31 03:10:36;;;;;;;4.45;2.10;;;23.70;60.50;;;;;;4106664;28;20034;-55
2021/03/31 03:13:09;;;;;;;4.93;1.90;;;23.70;60.60;;;;;;4105998;28;20178;-54
2021/03/31 03:15:13;;;;;;;3.55;1.63;;;23.70;60.50;;;;;;4100321;28;20041;-46
2021/03/31 03:17:19;;;;;;;5.90;2.00;;;23.80;60.40;;;;;;4112028;28;20030;-55
2021/03/31 03:19:21;;;;;;;5.75;2.47;;;23.80;60.40;;;;;;4106654;28;20039;-52
2021/03/31 03:21:24;;;;;;;4.18;2.15;;;23.80;60.40;;;;;;4103059;28;20085;-51
2021/03/31 03:23:26;;;;;;;;;;;23.80;60.30;;;;;;4107701;28;20046;-50
2021/03/31 03:25:29;;;;;;;5.25;1.85;;;23.80;60.20;;;;;;4106610;28;20255;-52
2021/03/31 03:27:32;;;;;;;4.07;2.17;;;23.90;60.40;;;;;;4110686;28;20046;-46
2021/03/31 03:29:34;;;;;;;5.05;1.88;;;23.90;60.30;;;;;;4109883;28;20034;-48
2021/03/31 03:31:38;;;;;;;15.70;2.22;;;23.90;60.40;;;;;;4110301;28;20038;-53
2021/03/31 03:33:40;;;;;;;3.88;1.80;;;24.00;60.40;;;;;;4111459;28;20035;-49
2021/03/31 03:35:43;;;;;;;3.67;2.00;;;24.00;60.40;;;;;;4112730;28;20566;-58
2021/03/31 03:37:46;;;;;;;3.55;1.83;;;24.00;60.70;;;;;;4115118;28;20035;-53
2021/03/31 03:39:48;;;;;;;3.83;1.98;;;24.00;60.10;;;;;;4105577;28;20856;-49
2021/03/31 03:41:50;;;;;;;3.20;1.60;;;24.10;60.00;;;;;;4111561;28;20123;-50
2021/03/31 03:43:56;;;;;;;4.45;2.00;;;24.10;60.10;;;;;;4111984;28;20440;-50
2021/03/31 03:45:59;;;;;;;2.65;1.33;;;24.20;60.00;;;;;;4109934;28;20038;-55
2021/03/31 03:48:02;;;;;;;4.10;1.75;;;24.20;60.00;;;;;;4111396;28;20511;-47
2021/03/31 03:50:07;;;;;;;3.15;1.58;;;;;;;;;;4105455;28;20030;-53
2021/03/31 03:52:10;;;;;;;4.65;1.77;;;;;;;;;;4105055;28;20566;-50
2021/03/31 03:54:12;;;;;;;2.80;1.40;;;24.30;60.00;;;;;;4105973;28;20117;-52
2021/03/31 03:56:14;;;;;;;3.72;1.60;;;24.40;59.40;;;;;;4106669;28;20031;-51
2021/03/31 03:58:16;;;;;;;4.38;1.77;;;24.50;59.30;;;;;;4109194;28;20040;-51
2021/03/31 04:00:22;;;;;;;3.72;1.50;;;24.50;59.20;;;;;;4101473;28;20453;-52
2021/03/31 04:02:24;;;;;;;3.22;1.40;;;24.60;59.10;;;;;;4108982;28;20055;-58
2021/03/31 04:04:27;;;;;;;5.40;2.30;;;24.60;58.90;;;;;;4104795;28;20380;-53
2021/03/31 04:06:29;;;;;;;5.53;1.42;;;24.70;58.90;;;;;;4109137;28;20039;-52
2021/03/31 04:08:31;;;;;;;3.00;1.50;;;24.70;58.80;;;;;;4114473;28;20085;-51
2021/03/31 04:10:35;;;;;;;2.65;1.58;;;24.80;58.70;;;;;;4107401;28;20472;-49
2021/03/31 04:12:39;;;;;;;3.08;1.50;;;24.90;58.50;;;;;;4110871;28;20449;-52
2021/03/31 04:14:43;;;;;;;4.47;1.48;;;24.90;58.40;;;;;;4108400;28;20081;-54
2021/03/31 04:16:47;;;;;;;3.60;1.65;;;25.00;58.30;;;;;;4109404;28;20029;-53
2021/03/31 04:18:50;;;;;;;4.18;1.48;;;25.10;58.20;;;;;;4110308;28;20031;-53
2021/03/31 04:20:53;;;;;;;3.63;1.63;;;25.10;57.90;;;;;;4106838;28;20241;-54
2021/03/31 04:22:55;;;;;;;2.67;1.40;;;25.20;57.80;;;;;;4112024;28;20046;-54
2021/03/31 04:24:57;;;;;;;3.40;1.40;;;25.20;57.60;;;;;;4108389;28;20492;-54
2021/03/31 04:27:02;;;;;;;3.92;1.73;;;25.30;57.60;;;;;;4110460;28;21213;-58
2021/03/31 04:29:05;;;;;;;4.22;1.70;;;25.30;58.00;;;;;;4116383;28;20326;-53
2021/03/31 04:31:09;;;;;;;4.28;2.03;;;25.40;56.80;;;;;;4093971;28;20157;-50
2021/03/31 04:33:12;;;;;;;4.47;1.92;;;25.50;55.70;;;;;;4109365;28;20045;-50
2021/03/31 04:35:15;;;;;;;4.95;2.05;;;;;;;;;;4108948;28;20268;-56
2021/03/31 04:37:17;;;;;;;6.97;2.00;;;25.50;54.70;;;;;;4107690;28;20052;-58
2021/03/31 04:39:22;;;;;;;5.32;2.33;;;25.50;53.60;;;;;;4114959;28;20049;-52
2021/03/31 04:41:24;;;;;;;6.07;2.30;;;25.60;53.30;;;;;;4110636;28;20050;-55
2021/03/31 04:43:29;;;;;;;4.25;2.00;;;25.60;53.00;;;;;;4106482;28;20134;-58
2021/03/31 04:45:31;;;;;;;5.28;2.05;;;25.60;53.10;;;;;;4104971;28;20110;-57
2021/03/31 04:47:34;;;;;;;4.45;2.10;;;25.60;52.90;;;;;;4111175;28;20503;-58
2021/03/31 04:49:36;;;;;;;5.53;2.28;;;25.60;52.90;;;;;;4108332;28;20034;-57
2021/03/31 04:51:38;;;;;;;7.47;2.50;;;25.70;52.80;;;;;;4107749;28;20046;-57
2021/03/31 04:53:43;;;;;;;6.15;2.42;;;25.70;52.70;;;;;;4110508;28;20042;-51
2021/03/31 04:55:45;;;;;;;6.10;2.28;;;25.80;52.60;;;;;;4109471;28;20451;-50
2021/03/31 04:57:47;;;;;;;6.00;2.30;;;25.80;52.70;;;;;;4107634;28;20181;-56
2021/03/31 04:59:49;;;;;;;6.35;2.33;;;25.90;52.90;;;;;;4108135;28;20484;-53
2021/03/31 05:01:51;;;;;;;3.63;1.88;;;26.00;53.10;;;;;;4110585;28;20104;-56
2021/03/31 05:03:53;;;;;;;5.75;2.28;;;26.00;53.30;;;;;;4112737;28;20034;-60
2021/03/31 05:05:55;;;;;;;4.97;2.25;;;26.10;53.30;;;;;;4109073;28;20501;-60
2021/03/31 05:07:57;;;;;;;8.32;2.50;;;26.10;53.60;;;;;;4106488;28;20066;-56
2021/03/31 05:09:59;;;;;;;6.18;2.08;;;26.10;53.70;;;;;;4106971;28;20125;-59
2021/03/31 05:12:02;;;;;;;5.93;2.10;;;26.10;53.90;;;;;;4105408;28;20916;-59
2021/03/31 05:14:05;;;;;;;4.40;2.30;;;26.10;54.00;;;;;;4105118;28;20449;-58
2021/03/31 05:16:07;;;;;;;5.20;2.10;;;26.10;54.30;;;;;;4109652;28;20054;-59
2021/03/31 05:18:09;;;;;;;6.15;2.42;;;26.10;53.90;;;;;;4102579;28;20109;-60
2021/03/31 05:20:12;;;;;;;3.80;1.98;;;26.10;53.90;;;;;;4111199;28;20375;-60
2021/03/31 05:22:14;;;;;;;;;;;26.10;54.10;;;;;;4105124;28;20072;-57
2021/03/31 05:24:16;;;;;;;3.63;2.00;;;26.20;54.20;;;;;;4107178;28;19928;-61
2021/03/31 05:26:18;;;;;;;4.32;2.15;;;26.20;54.30;;;;;;4112273;28;20019;-57
2021/03/31 05:28:20;;;;;;;3.25;1.80;;;26.20;54.20;;;;;;4103388;28;20034;-61
2021/03/31 05:30:24;;;;;;;4.28;1.80;;;26.30;54.20;;;;;;4098385;28;20043;-60
2021/03/31 05:32:26;;;;;;;5.45;2.10;;;26.30;54.10;;;;;;4089417;28;20607;-60
2021/03/31 05:34:28;;;;;;;6.00;2.00;;;26.40;54.30;;;;;;4103684;28;20733;-57
2021/03/31 05:36:30;;;;;;;4.43;1.85;;;26.40;54.10;;;;;;4105608;28;20042;-57
2021/03/31 05:38:32;;;;;;;3.75;2.00;;;26.40;54.10;;;;;;4103942;28;20052;-59
2021/03/31 05:40:34;;;;;;;4.13;1.70;;;26.50;54.00;;;;;;4087480;28;20058;-58
2021/03/31 05:42:38;;;;;;;6.37;1.97;;;26.50;54.00;;;;;;4099288;28;20073;-57
2021/03/31 05:44:40;;;;;;;4.88;2.55;;;26.60;54.20;;;;;;4108194;28;20034;-57
2021/03/31 05:46:43;;;;;;;3.45;1.65;;;26.60;54.10;;;;;;4121560;28;20018;-57
2021/03/31 05:48:45;;;;;;;4.75;2.28;;;26.60;53.80;;;;;;4109550;28;20057;-59
2021/03/31 05:50:48;;;;;;;3.42;1.80;;;26.70;54.00;;;;;;4114599;28;20482;-59
2021/03/31 05:52:50;;;;;;;4.40;1.88;;;26.70;54.00;;;;;;4116511;28;20167;-59
2021/03/31 05:54:52;;;;;;;3.78;1.95;;;26.80;53.80;;;;;;4116487;28;20441;-59
2021/03/31 05:56:54;;;;;;;4.00;1.75;;;26.80;53.90;;;;;;4118412;28;20054;-58
2021/03/31 05:58:57;;;;;;;3.08;1.55;;;26.80;53.70;;;;;;4123267;28;20034;-57
2021/03/31 06:01:02;;;;;;;4.63;2.00;;;26.80;53.70;;;;;;4114025;28;21380;-60
2021/03/31 06:03:05;;;;;;;5.50;2.10;;;26.90;53.70;;;;;;4103093;28;20627;-57
2021/03/31 06:05:09;;;;;;;10.25;2.30;;;26.90;53.60;;;;;;4104950;28;20511;-59
2021/03/31 06:07:14;;;;;;;4.05;1.83;;;27.00;53.60;;;;;;4108388;28;20421;-59
2021/03/31 06:09:16;;;;;;;4.03;1.77;;;27.00;53.50;;;;;;4108680;28;20504;-59
2021/03/31 06:11:20;;;;;;;4.30;1.60;;;27.00;53.30;;;;;;4111692;28;20026;-58
2021/03/31 06:13:23;;;;;;;4.10;1.58;;;27.10;53.50;;;;;;4111746;28;20050;-56
2021/03/31 06:15:34;;;;;;;3.65;1.77;;;27.10;53.90;;;;;;4109801;28;20046;-58
2021/03/31 06:17:48;;;;;;;4.68;1.90;;;27.10;53.40;;;;;;4108073;28;20057;-58
2021/03/31 06:19:50;;;;;;;3.25;1.55;;;27.20;53.30;;;;;;4110055;28;20046;-59
2021/03/31 06:22:07;;;;;;;3.35;1.83;;;27.20;53.70;;;;;;4108847;28;20057;-57
2021/03/31 06:24:24;;;;;;;3.92;1.70;;;27.20;53.20;;;;;;4116002;28;20039;-58
2021/03/31 06:26:29;;;;;;;3.47;1.80;;;27.20;53.30;;;;;;4111708;28;20034;-60
2021/03/31 06:28:36;;;;;;;5.40;1.92;;;27.30;53.50;;;;;;4110996;28;20035;-57
2021/03/31 06:30:38;;;;;;;3.92;1.95;;;27.30;53.70;;;;;;4109088;28;20380;-58
2021/03/31 06:32:41;;;;;;;3.83;1.80;;;27.30;53.00;;;;;;4110041;28;20132;-55
2021/03/31 06:34:53;;;;;;;;;;;27.30;53.00;;;;;;4107978;28;20357;-55
2021/03/31 06:36:59;;;;;;;3.25;1.58;;;27.30;53.10;;;;;;4096361;28;19918;-54
2021/03/31 06:39:15;;;;;;;3.25;1.70;;;27.40;53.00;;;;;;4100214;28;20093;-60
2021/03/31 06:41:32;;;;;;;4.20;1.88;;;27.40;52.80;;;;;;4115173;28;20026;-56
2021/03/31 06:43:43;;;;;;;3.33;1.70;;;27.40;52.90;;;;;;4108435;28;20053;-58
2021/03/31 06:46:08;;;;;;;2.97;1.48;;;27.40;52.70;;;;;;4112868;28;20152;-59
2021/03/31 06:48:08;;;;;;;6.55;1.60;;;27.40;52.80;;;;;;4113567;28;20082;-55
2021/03/31 06:50:17;;;;;;;7.05;2.20;;;27.40;53.00;;;;;;4107366;28;21312;-57
2021/03/31 06:52:20;;;;;;;6.25;1.90;;;27.40;53.00;;;;;;4108408;28;20075;-56
2021/03/31 06:54:22;;;;;;;6.22;2.33;;;27.40;52.90;;;;;;4113597;28;20096;-57
2021/03/31 06:56:29;;;;;;;11.27;3.05;;;27.40;52.70;;;;;;4113076;28;20141;-52
2021/03/31 06:58:33;;;;;;;8.30;2.60;;;27.40;53.30;;;;;;4107125;28;20128;-56
2021/03/31 07:00:37;;;;;;;12.63;2.60;;;27.40;52.80;;;;;;4111049;28;20030;-56
2021/03/31 07:02:42;;;;;;;7.68;2.15;;;27.40;52.80;;;;;;4109916;28;20049;-61
2021/03/31 07:04:46;;;;;;;11.55;2.50;;;27.40;52.70;;;;;;4094992;28;20037;-58
2021/03/31 07:07:09;;;;;;;6.80;2.60;;;27.40;53.70;;;;;;4092483;28;20050;-59
2021/03/31 07:09:20;;;;;;;7.03;2.15;;;27.40;52.80;;;;;;4091256;28;20089;-53
2021/03/31 07:11:41;;;;;;;7.15;2.55;;;27.40;52.60;;;;;;4092431;28;20056;-56
2021/03/31 07:13:44;;;;;;;9.45;2.15;;;27.40;52.70;;;;;;4108471;28;20508;-58
2021/03/31 07:15:46;;;;;;;6.78;2.10;;;27.40;52.90;;;;;;4101099;28;20030;-54
2021/03/31 07:17:55;;;;;;;6.47;1.90;;;27.40;52.70;;;;;;4107846;28;20137;-58
2021/03/31 07:19:58;;;;;;;5.47;1.80;;;27.40;52.80;;;;;;4107945;28;20132;-58
2021/03/31 07:22:01;;;;;;;7.68;1.70;;;27.40;52.80;;;;;;4110081;28;20039;-58
2021/03/31 07:24:05;;;;;;;5.43;1.70;;;27.30;52.90;;;;;;4105593;28;20476;-53
2021/03/31 07:26:07;;;;;;;6.03;2.10;;;27.30;52.90;;;;;;4108571;28;20572;-60
2021/03/31 07:28:11;;;;;;;5.03;1.70;;;27.30;52.70;;;;;;4112006;28;20454;-55
2021/03/31 07:30:22;;;;;;;4.45;1.85;;;27.30;52.70;;;;;;4109799;28;20439;-54
2021/03/31 07:32:25;;;;;;;5.93;1.65;;;27.20;52.60;;;;;;4111231;28;20213;-53
2021/03/31 07:34:30;;;;;;;4.03;1.70;;;27.20;52.60;;;;;;4104017;28;20042;-59
2021/03/31 07:36:32;;;;;;;8.32;1.77;;;27.20;52.70;;;;;;4106795;28;20418;-59
2021/03/31 07:38:35;;;;;;;5.32;2.28;;;27.10;52.90;;;;;;4112908;28;20411;-59
2021/03/31 07:40:37;;;;;;;;;;;27.10;52.90;;;;;;4110070;28;20042;-50
2021/03/31 07:43:00;;;;;;;4.55;1.75;;;27.10;53.00;;;;;;4109797;28;20308;-57
2021/03/31 07:45:04;;;;;;;5.65;1.95;;;27.10;53.10;;;;;;4105341;28;20436;-57
2021/03/31 07:47:07;;;;;;;5.20;1.90;;;27.00;51.40;;;;;;4089609;28;20483;-56
2021/03/31 07:49:10;;;;;;;8.32;1.88;;;26.90;50.90;;;;;;4104899;28;20069;-61
2021/03/31 07:51:21;;;;;;;6.10;1.90;;;26.90;50.20;;;;;;4106844;28;20562;-57
2021/03/31 07:53:24;;;;;;;7.00;2.15;;;26.70;50.00;;;;;;4108643;28;20050;-53
2021/03/31 07:55:41;;;;;;;6.78;2.53;;;26.70;50.30;;;;;;4109348;28;20169;-50
2021/03/31 07:57:43;;;;;;;9.48;3.22;;;26.60;50.10;;;;;;4112621;28;20090;-50
2021/03/31 07:59:45;;;;;;;14.50;4.82;;;26.60;50.20;;;;;;4110359;28;20022;-52
2021/03/31 08:01:58;;;;;;;28.05;9.13;;;26.50;50.20;;;;;;4117269;28;20053;-56
2021/03/31 08:04:03;;;;;;;27.90;8.38;;;26.40;50.70;;;;;;4110503;28;20054;-53
2021/03/31 08:06:20;;;;;;;29.85;8.55;;;26.40;50.40;;;;;;4110358;28;20110;-51
2021/03/31 08:08:25;;;;;;;24.13;8.13;;;26.30;50.30;;;;;;4117664;28;20027;-52
2021/03/31 08:10:37;;;;;;;26.27;8.50;;;26.30;50.30;;;;;;4113271;28;20034;-54
2021/03/31 08:12:39;;;;;;;20.30;7.45;;;26.20;50.40;;;;;;4110434;28;20583;-50
2021/03/31 08:14:43;;;;;;;17.23;7.00;;;26.10;50.20;;;;;;4122510;28;20038;-54
2021/03/31 08:16:48;;;;;;;20.40;6.82;;;26.10;50.30;;;;;;4115815;28;20073;-56
2021/03/31 08:18:51;;;;;;;18.17;5.72;;;26.10;50.40;;;;;;4103450;28;20404;-59
2021/03/31 08:20:54;;;;;;;18.23;6.13;;;26.00;50.50;;;;;;4111995;28;20034;-55
2021/03/31 08:22:56;;;;;;;;;;;26.00;50.50;;;;;;4111257;28;20046;-56
2021/03/31 08:25:13;;;;;;;20.60;5.93;;;25.90;50.70;;;;;;4113705;28;19933;-52
2021/03/31 08:27:16;;;;;;;12.40;4.78;;;25.90;50.60;;;;;;4112586;28;20038;-55
2021/03/31 08:29:20;;;;;;;12.88;4.60;;;25.80;50.70;;;;;;4124003;28;20056;-55
2021/03/31 08:31:26;;;;;;;17.80;4.95;;;25.80;50.80;;;;;;4103060;28;20046;-58
2021/03/31 08:33:29;;;;;;;16.50;3.92;;;25.80;50.80;;;;;;4089319;28;20664;-56
2021/03/31 08:35:32;;;;;;;11.25;3.30;;;25.80;51.10;;;;;;4111770;28;20112;-56
2021/03/31 08:37:34;;;;;;;8.00;3.60;;;25.70;51.10;;;;;;4109942;28;20089;-56
2021/03/31 08:39:36;;;;;;;8.13;3.67;;;25.70;51.10;;;;;;4105610;28;20042;-56
2021/03/31 08:41:45;;;;;;;13.75;3.50;;;25.70;51.10;;;;;;4113495;28;20030;-55
2021/03/31 08:43:48;;;;;;;8.55;3.38;;;25.70;51.10;;;;;;4109898;28;20050;-57
2021/03/31 08:45:54;;;;;;;9.10;3.00;;;25.60;51.10;;;;;;4108466;28;20035;-58
2021/03/31 08:47:58;;;;;;;7.03;2.60;;;25.60;51.10;;;;;;4109813;28;20033;-54
2021/03/31 08:50:07;;;;;;;6.55;2.60;;;25.60;51.30;;;;;;4114849;28;20205;-55
2021/03/31 08:52:12;;;;;;;5.50;2.38;;;25.60;51.50;;;;;;4109660;28;20041;-58
2021/03/31 08:54:14;;;;;;;5.50;2.78;;;25.60;51.90;;;;;;4104549;28;20042;-57
2021/03/31 08:56:22;;;;;;;6.15;2.70;;;25.50;51.40;;;;;;4102507;28;20038;-55
2021/03/31 08:58:27;;;;;;;8.15;2.75;;;25.50;51.40;;;;;;4106412;28;20039;-54
2021/03/31 09:00:29;;;;;;;3.92;2.03;;;25.50;51.40;;;;;;4107173;28;20048;-55
2021/03/31 09:02:43;;;;;;;5.28;2.40;;;25.40;51.50;;;;;;4105597;28;20056;-52
2021/03/31 09:04:46;;;;;;;7.10;2.20;;;25.40;51.50;;;;;;4100910;28;20050;-51
2021/03/31 09:06:48;;;;;;;4.10;1.70;;;25.40;51.90;;;;;;4108597;28;20035;-53
2021/03/31 09:08:50;;;;;;;4.88;1.60;;;25.40;52.30;;;;;;4100294;28;20419;-51
2021/03/31 09:11:03;;;;;;;4.82;1.92;;;25.40;52.50;;;;;;4108458;28;20080;-55
2021/03/31 09:13:05;;;;;;;5.43;2.00;;;25.40;52.70;;;;;;4090092;28;20055;-49
2021/03/31 09:15:08;;;;;;;4.60;1.63;;;25.40;52.90;;;;;;4095386;28;20146;-47
2021/03/31 09:17:22;;;;;;;7.10;2.13;;;25.40;53.30;;;;;;4101007;28;20030;-46
2021/03/31 09:19:26;;;;;;;5.68;2.10;;;25.40;53.20;;;;;;4102208;28;20057;-49
2021/03/31 09:21:29;;;;;;;5.63;1.83;;;25.40;53.30;;;;;;4102107;28;20054;-46
2021/03/31 09:23:31;;;;;;;4.10;1.83;;;25.40;53.50;;;;;;4107104;28;20042;-45
2021/03/31 09:25:33;;;;;;;4.65;1.98;;;25.40;53.70;;;;;;4101558;28;20137;-46
2021/03/31 09:27:36;;;;;;;4.55;1.70;;;25.40;53.90;;;;;;4105665;28;20045;-50
2021/03/31 09:29:42;;;;;;;4.97;1.80;;;25.40;53.90;;;;;;4103449;28;20023;-46
2021/03/31 09:31:45;;;;;;;4.57;2.10;;;25.40;54.00;;;;;;4103426;28;20053;-51
2021/03/31 09:33:48;;;;;;;5.97;1.88;;;25.40;54.30;;;;;;4105312;28;20046;-52
2021/03/31 09:35:50;;;;;;;14.48;2.00;;;25.40;54.50;;;;;;4103517;28;20097;-50
2021/03/31 09:37:53;;;;;;;6.15;1.75;;;25.40;54.50;;;;;;4107061;28;20109;-49
2021/03/31 09:39:58;;;;;;;5.10;2.00;;;25.40;54.80;;;;;;4109023;28;20060;-50
2021/03/31 09:42:00;;;;;;;5.53;1.85;;;25.40;54.70;;;;;;4108846;28;20112;-45
2021/03/31 09:44:02;;;;;;;7.82;2.13;;;25.40;54.80;;;;;;4112434;28;20047;-50
2021/03/31 09:46:07;;;;;;;7.35;1.77;;;25.40;54.70;;;;;;4110426;28;20034;-49
2021/03/31 09:48:09;;;;;;;5.32;1.92;;;25.40;54.90;;;;;;4116402;28;20322;-47
2021/03/31 09:50:12;;;;;;;5.77;1.60;;;25.50;55.00;;;;;;4107841;28;20129;-50
2021/03/31 09:52:15;;;;;;;5.70;1.60;;;25.50;55.10;;;;;;4109619;28;20566;-48
2021/03/31 09:54:18;;;;;;;5.20;1.73;;;25.40;55.00;;;;;;4110194;28;20042;-54
2021/03/31 09:56:20;;;;;;;6.88;2.15;;;25.40;55.10;;;;;;4117506;28;20026;-50
2021/03/31 09:58:26;;;;;;;4.40;1.63;;;25.50;55.30;;;;;;4106301;28;20074;-47
2021/03/31 10:00:29;;;;;;;6.45;2.13;;;25.50;55.20;;;;;;4128630;28;20095;-49
2021/03/31 10:02:31;;;;;;;5.33;2.03;;;25.50;55.20;;;;;;4113023;28;20058;-52
2021/03/31 10:04:37;;;;;;;7.00;1.90;;;25.40;55.20;;;;;;4111705;28;20288;-51
2021/03/31 10:06:39;;;;;;;7.43;2.17;;;25.40;55.20;;;;;;4111499;28;20187;-49
2021/03/31 10:08:42;;;;;;;3.92;1.95;;;25.40;55.20;;;;;;4111210;28;20022;-53
2021/03/31 10:10:48;;;;;;;5.55;2.10;;;25.40;55.20;;;;;;4117390;28;20076;-49
2021/03/31 10:12:50;;;;;;;5.05;2.08;;;25.40;55.70;;;;;;4106633;28;20051;-47
2021/03/31 10:14:55;;;;;;;7.07;1.60;;;25.40;55.30;;;;;;4108593;28;20488;-52
2021/03/31 10:16:57;;;;;;;5.65;1.80;;;25.40;55.30;;;;;;4115511;28;20055;-49
2021/03/31 10:18:59;;;;;;;5.20;1.80;;;25.40;55.30;;;;;;4112908;28;20042;-44
2021/03/31 10:21:04;;;;;;;3.92;1.70;;;25.40;55.40;;;;;;4112390;28;20064;-48
2021/03/31 10:23:06;;;;;;;2.85;1.55;;;25.40;54.80;;;;;;4113119;28;20073;-53
2021/03/31 10:25:23;;;;;;;5.55;2.08;;;25.30;55.40;;;;;;4105238;28;20149;-47
2021/03/31 10:27:42;;;;;;;5.05;1.55;;;25.30;55.40;;;;;;4110840;28;20534;-47
2021/03/31 10:29:50;;;;;;;3.00;1.60;;;25.40;55.50;;;;;;4109572;28;20071;-50
2021/03/31 10:31:54;;;;;;;5.60;1.92;;;25.30;55.50;;;;;;4109573;28;20026;-47
2021/03/31 10:33:57;;;;;;;3.95;1.67;;;25.30;55.70;;;;;;4109128;28;20076;-51
2021/03/31 10:36:00;;;;;;;5.88;1.80;;;25.30;55.70;;;;;;4110499;28;20584;-54
2021/03/31 10:38:04;;;;;;;;;;;25.30;55.70;;;;;;4117912;28;20031;-52
2021/03/31 10:49:50;;;;;;;4.78;1.70;;;25.30;55.90;;;;;;4115638;28;20591;-49
2021/03/31 10:52:04;;;;;;;8.65;1.88;;;25.30;55.80;;;;;;4115236;28;20122;-49
2021/03/31 10:54:12;;;;;;;6.85;2.08;;;25.30;56.00;;;;;;4105475;28;20349;-47
2021/03/31 10:56:14;;;;;;;3.63;1.92;;;25.30;56.00;;;;;;4113620;28;20101;-48
2021/03/31 10:58:16;;;;;;;6.55;1.90;;;25.30;56.10;;;;;;4112783;28;20617;-55
2021/03/31 11:00:19;;;;;;;3.45;1.77;;;25.30;56.20;;;;;;4108653;28;20089;-49
2021/03/31 11:02:21;;;;;;;3.05;1.52;;;25.30;56.20;;;;;;4115583;28;20049;-56